createdAt,value
2019-03-16T00:00:18.248Z,934.45
2019-03-16T00:01:19.009Z,934.49
2019-03-16T00:02:19.771Z,934.55
2019-03-16T00:03:20.423Z,934.46
2019-03-16T00:04:21.539Z,934.35
2019-03-16T00:05:21.736Z,934.55
2019-03-16T00:06:22.237Z,934.52
2019-03-16T00:07:33.484Z,934.55
2019-03-16T00:08:34.029Z,934.52
2019-03-16T00:09:34.802Z,934.25
2019-03-16T00:10:35.844Z,934.51
2019-03-16T00:11:37.219Z,934.53
2019-03-16T00:12:37.898Z,934.61
2019-03-16T00:13:38.380Z,934.49
2019-03-16T00:14:39.439Z,934.44
2019-03-16T00:15:39.916Z,934.43
2019-03-16T00:16:40.949Z,934.41
2019-03-16T00:17:41.430Z,934.44
2019-03-16T00:18:42.099Z,934.38
2019-03-16T00:19:43.135Z,934.39
2019-03-16T00:20:43.614Z,934.32
2019-03-16T00:21:44.651Z,934.31
2019-03-16T00:22:45.409Z,934.38
2019-03-16T00:23:46.164Z,934.39
2019-03-16T00:24:46.928Z,934.4
2019-03-16T00:25:47.960Z,934.28
2019-03-16T00:26:48.437Z,934.4
2019-03-16T00:27:48.956Z,934.42
2019-03-16T00:28:49.730Z,934.36
2019-03-16T00:29:49.929Z,934.41
2019-03-16T00:30:50.430Z,934.31
2019-03-16T00:31:51.189Z,934.34
2019-03-16T00:32:51.754Z,934.47
2019-03-16T00:33:52.260Z,934.4
2019-03-16T00:34:52.736Z,934.45
2019-03-16T00:35:52.949Z,934.3
2019-03-16T00:36:53.981Z,934.31
2019-03-16T00:37:54.463Z,934.3
2019-03-16T00:38:55.447Z,934.3
2019-03-16T00:39:56.207Z,934.28
2019-03-16T00:40:57.268Z,934.35
2019-03-16T00:41:57.758Z,934.36
2019-03-16T00:42:58.240Z,934.34
2019-03-16T00:43:58.997Z,934.4
2019-03-16T00:44:59.480Z,934.31
2019-03-16T00:45:59.913Z,934.33
2019-03-16T00:47:00.396Z,934.39
2019-03-16T00:48:01.450Z,934.4
2019-03-16T00:49:01.937Z,934.4
2019-03-16T00:50:02.248Z,934.37
2019-03-16T00:51:03.004Z,934.36
2019-03-16T00:52:03.780Z,934.45
2019-03-16T00:53:03.987Z,934.42
2019-03-16T00:54:05.018Z,934.51
2019-03-16T00:55:06.058Z,934.37
2019-03-16T00:56:07.184Z,934.38
2019-03-16T00:57:07.665Z,934.45
2019-03-16T00:58:08.512Z,934.54
2019-03-16T00:59:09.468Z,934.31
2019-03-16T01:00:10.225Z,934.32
2019-03-16T01:01:11.357Z,934.36
2019-03-16T01:02:12.112Z,934.42
2019-03-16T01:02:27.233Z,934.48
2019-03-16T01:02:33.041Z,934.45
2019-03-16T01:03:32.996Z,934.53
2019-03-16T01:04:33.755Z,934.45
2019-03-16T01:05:34.314Z,934.46
2019-03-16T01:06:35.347Z,934.47
2019-03-16T01:07:35.837Z,934.43
2019-03-16T01:08:36.434Z,934.45
2019-03-16T01:09:37.193Z,934.42
2019-03-16T01:10:37.673Z,934.44
2019-03-16T01:11:38.177Z,934.48
2019-03-16T01:12:38.940Z,934.47
2019-03-16T01:13:39.175Z,934.53
2019-03-16T01:14:39.660Z,934.32
2019-03-16T01:15:40.697Z,934.42
2019-03-16T01:16:41.472Z,934.47
2019-03-16T01:17:41.950Z,934.45
2019-03-16T01:18:42.442Z,934.39
2019-03-16T01:19:43.481Z,934.43
2019-03-16T01:20:44.239Z,934.45
2019-03-16T01:21:44.998Z,934.46
2019-03-16T01:22:45.758Z,934.47
2019-03-16T01:23:46.070Z,934.4
2019-03-16T01:24:46.557Z,934.43
2019-03-16T01:25:47.364Z,934.4
2019-03-16T01:26:47.941Z,934.41
2019-03-16T01:27:48.703Z,934.34
2019-03-16T01:28:48.957Z,934.41
2019-03-16T01:29:49.711Z,934.38
2019-03-16T01:30:50.750Z,934.39
2019-03-16T01:31:51.076Z,934.44
2019-03-16T01:32:52.112Z,934.46
2019-03-16T01:33:53.037Z,934.47
2019-03-16T01:34:53.517Z,934.36
2019-03-16T01:35:54.276Z,934.39
2019-03-16T01:36:55.079Z,934.41
2019-03-16T01:37:55.289Z,934.42
2019-03-16T01:38:55.800Z,934.34
2019-03-16T01:39:56.282Z,934.26
2019-03-16T01:40:57.601Z,934.24
2019-03-16T01:41:58.357Z,934.33
2019-03-16T01:42:58.844Z,934.32
2019-03-16T01:43:59.605Z,934.31
2019-03-16T01:45:00.474Z,934.33
2019-03-16T01:46:00.820Z,934.3
2019-03-16T01:47:01.856Z,934.39
2019-03-16T01:48:02.625Z,934.28
2019-03-16T01:49:03.383Z,934.24
2019-03-16T01:50:03.589Z,934.22
2019-03-16T01:51:04.066Z,934.37
2019-03-16T01:52:04.669Z,934.34
2019-03-16T01:53:04.870Z,934.28
2019-03-16T01:54:06.068Z,934.34
2019-03-16T01:55:06.271Z,934.41
2019-03-16T01:56:06.609Z,934.46
2019-03-16T01:57:07.726Z,934.48
2019-03-16T01:58:08.490Z,934.44
2019-03-16T01:59:09.250Z,934.41
2019-03-16T02:00:10.007Z,934.17
2019-03-16T02:01:11.045Z,934.57
2019-03-16T02:02:12.127Z,934.56
2019-03-16T02:03:12.610Z,934.4
2019-03-16T02:04:13.109Z,934.41
2019-03-16T02:05:13.877Z,934.44
2019-03-16T02:06:14.495Z,934.45
2019-03-16T02:07:15.254Z,934.53
2019-03-16T02:08:16.310Z,934.39
2019-03-16T02:09:17.068Z,934.36
2019-03-16T02:10:17.550Z,934.39
2019-03-16T02:11:18.037Z,934.22
2019-03-16T02:12:18.241Z,934.4
2019-03-16T02:13:18.726Z,934.12
2019-03-16T02:14:19.205Z,934.42
2019-03-16T02:15:19.408Z,934.44
2019-03-16T02:16:19.884Z,934.32
2019-03-16T02:17:20.921Z,934.52
2019-03-16T02:18:21.414Z,934.41
2019-03-16T02:19:21.985Z,934.43
2019-03-16T02:20:22.181Z,934.34
2019-03-16T02:21:22.938Z,934.38
2019-03-16T02:22:23.719Z,934.45
2019-03-16T02:23:24.029Z,934.47
2019-03-16T02:24:24.850Z,934.38
2019-03-16T02:25:25.160Z,934.51
2019-03-16T02:26:26.502Z,934.56
2019-03-16T02:27:26.805Z,934.59
2019-03-16T02:28:27.290Z,934.53
2019-03-16T02:29:28.046Z,934.55
2019-03-16T02:30:29.122Z,934.53
2019-03-16T02:31:30.294Z,934.53
2019-03-16T02:32:30.917Z,934.61
2019-03-16T02:33:31.280Z,934.59
2019-03-16T02:34:32.516Z,934.6
2019-03-16T02:35:33.877Z,934.66
2019-03-16T02:36:34.917Z,934.84
2019-03-16T02:37:36.285Z,934.62
2019-03-16T02:38:36.670Z,934.51
2019-03-16T02:39:37.261Z,934.5
2019-03-16T02:40:38.595Z,934.51
2019-03-16T02:41:39.934Z,934.5
2019-03-16T02:42:40.810Z,934.52
2019-03-16T02:43:41.307Z,934.51
2019-03-16T02:44:41.938Z,934.49
2019-03-16T02:45:43.037Z,934.6
2019-03-16T02:46:44.396Z,934.61
2019-03-16T02:47:45.271Z,934.62
2019-03-16T02:48:45.726Z,934.72
2019-03-16T02:49:46.789Z,934.56
2019-03-16T02:50:47.687Z,934.5
2019-03-16T02:51:48.446Z,934.6
2019-03-16T02:52:50.676Z,934.55
2019-03-16T02:53:51.304Z,934.67
2019-03-16T02:54:52.189Z,934.58
2019-03-16T02:55:53.254Z,934.66
2019-03-16T02:56:54.166Z,934.68
2019-03-16T02:57:55.043Z,934.58
2019-03-16T02:58:56.399Z,934.54
2019-03-16T02:59:56.726Z,934.69
2019-03-16T03:00:57.487Z,934.77
2019-03-16T03:01:58.378Z,934.68
2019-03-16T03:02:58.989Z,934.72
2019-03-16T03:03:59.877Z,934.7
2019-03-16T03:05:00.625Z,934.77
2019-03-16T03:06:01.633Z,934.78
2019-03-16T03:07:01.890Z,934.71
2019-03-16T03:08:02.534Z,934.86
2019-03-16T03:09:03.609Z,934.91
2019-03-16T03:10:04.410Z,934.82
2019-03-16T03:11:04.855Z,934.8
2019-03-16T03:12:05.481Z,934.84
2019-03-16T03:13:06.539Z,934.84
2019-03-16T03:13:16.596Z,934.86
2019-03-16T03:14:16.853Z,934.81
2019-03-16T03:15:17.463Z,934.91
2019-03-16T03:16:18.236Z,934.91
2019-03-16T03:17:19.051Z,935
2019-03-16T03:18:19.951Z,934.92
2019-03-16T03:19:20.318Z,934.96
2019-03-16T03:20:20.631Z,934.98
2019-03-16T03:21:21.521Z,935
2019-03-16T03:22:22.580Z,934.89
2019-03-16T03:23:23.465Z,935.04
2019-03-16T03:24:23.871Z,935.04
2019-03-16T03:25:24.382Z,935.1
2019-03-16T03:26:25.272Z,934.95
2019-03-16T03:27:25.845Z,935
2019-03-16T03:28:26.200Z,935.03
2019-03-16T03:29:27.253Z,935.06
2019-03-16T03:30:28.589Z,934.93
2019-03-16T03:31:29.292Z,935.05
2019-03-16T03:32:29.929Z,935.09
2019-03-16T03:33:58.405Z,935.01
2019-03-16T03:33:59.576Z,934.94
2019-03-16T03:34:02.602Z,934.92
2019-03-16T03:35:02.419Z,935.04
2019-03-16T03:36:03.430Z,935.05
2019-03-16T03:37:04.204Z,935.16
2019-03-16T03:38:05.146Z,935.05
2019-03-16T03:39:05.752Z,935.14
2019-03-16T03:40:06.849Z,935.18
2019-03-16T03:41:08.205Z,935.09
2019-03-16T03:42:09.082Z,935.19
2019-03-16T03:43:10.159Z,935.1
2019-03-16T03:44:11.054Z,935.17
2019-03-16T03:45:11.770Z,935.08
2019-03-16T03:46:12.877Z,935.03
2019-03-16T03:47:13.916Z,935.02
2019-03-16T03:48:14.961Z,935
2019-03-16T03:49:15.555Z,934.98
2019-03-16T03:50:16.721Z,935.04
2019-03-16T03:51:17.767Z,935.16
2019-03-16T03:52:18.649Z,934.97
2019-03-16T03:53:19.535Z,935.06
2019-03-16T03:54:20.039Z,935.15
2019-03-16T03:55:21.180Z,935.11
2019-03-16T03:56:22.360Z,935.33
2019-03-16T03:57:23.515Z,935.2
2019-03-16T03:58:24.538Z,935.32
2019-03-16T03:59:25.338Z,935.34
2019-03-16T04:00:26.151Z,935.19
2019-03-16T04:01:27.196Z,935.24
2019-03-16T04:02:27.813Z,935.14
2019-03-16T04:03:28.779Z,935.12
2019-03-16T04:04:29.661Z,935.17
2019-03-16T04:05:30.277Z,935.14
2019-03-16T04:06:31.071Z,935.15
2019-03-16T04:07:31.707Z,935.28
2019-03-16T04:08:32.807Z,935.36
2019-03-16T04:09:34.282Z,934.99
2019-03-16T04:10:35.192Z,935.23
2019-03-16T04:11:35.585Z,935.2
2019-03-16T04:12:35.971Z,935.16
2019-03-16T04:13:36.612Z,935.29
2019-03-16T04:14:36.956Z,935.25
2019-03-16T04:15:37.492Z,935.15
2019-03-16T04:16:38.613Z,935.19
2019-03-16T04:17:39.318Z,935.21
2019-03-16T04:18:40.285Z,935.25
2019-03-16T04:19:40.902Z,935.31
2019-03-16T04:20:41.728Z,935.23
2019-03-16T04:21:43.079Z,935.3
2019-03-16T04:22:44.147Z,935.35
2019-03-16T04:23:44.908Z,935.23
2019-03-16T04:24:46.242Z,935.25
2019-03-16T04:25:46.745Z,935.04
2019-03-16T04:26:47.904Z,935.24
2019-03-16T04:27:48.257Z,935.18
2019-03-16T04:28:49.138Z,935.29
2019-03-16T04:29:49.906Z,935.24
2019-03-16T04:30:51.235Z,935.16
2019-03-16T04:31:52.132Z,935.18
2019-03-16T04:32:52.472Z,935.21
2019-03-16T04:33:53.242Z,935.18
2019-03-16T04:34:54.034Z,935.21
2019-03-16T04:35:54.968Z,935.17
2019-03-16T04:36:55.326Z,935.19
2019-03-16T04:37:56.495Z,935.18
2019-03-16T04:38:57.532Z,935.24
2019-03-16T04:39:58.576Z,935.04
2019-03-16T04:40:59.460Z,935.19
2019-03-16T04:41:59.998Z,935.16
2019-03-16T04:43:00.562Z,935.12
2019-03-16T04:44:01.400Z,935.14
2019-03-16T04:45:02.158Z,935.26
2019-03-16T04:46:03.266Z,935.19
2019-03-16T04:47:04.336Z,935.16
2019-03-16T04:48:05.094Z,935.17
2019-03-16T04:49:05.868Z,935.17
2019-03-16T04:50:06.364Z,935.14
2019-03-16T04:51:06.581Z,935.08
2019-03-16T04:52:07.119Z,935.29
2019-03-16T04:53:08.153Z,935.11
2019-03-16T04:54:08.357Z,935.08
2019-03-16T04:55:09.120Z,935.14
2019-03-16T04:56:09.888Z,935.05
2019-03-16T04:57:11.033Z,935
2019-03-16T04:58:11.791Z,934.95
2019-03-16T04:59:12.552Z,934.89
2019-03-16T05:00:13.396Z,934.81
2019-03-16T05:01:13.876Z,934.88
2019-03-16T05:02:14.916Z,934.87
2019-03-16T05:03:15.672Z,934.94
2019-03-16T05:04:16.149Z,934.89
2019-03-16T05:05:16.622Z,934.82
2019-03-16T05:06:17.109Z,934.82
2019-03-16T05:07:17.861Z,934.79
2019-03-16T05:08:18.623Z,934.91
2019-03-16T05:09:19.652Z,934.99
2019-03-16T05:10:19.850Z,935.01
2019-03-16T05:11:20.873Z,935.01
2019-03-16T05:12:21.069Z,934.89
2019-03-16T05:13:21.820Z,934.97
2019-03-16T05:14:22.572Z,935
2019-03-16T05:15:23.341Z,935.1
2019-03-16T05:16:24.359Z,935.14
2019-03-16T05:17:25.112Z,935.09
2019-03-16T05:18:25.922Z,935.15
2019-03-16T05:19:26.677Z,935.12
2019-03-16T05:20:27.276Z,935.23
2019-03-16T05:21:28.032Z,935.11
2019-03-16T05:22:28.780Z,935.19
2019-03-16T05:23:28.978Z,935.18
2019-03-16T05:24:30.013Z,935.13
2019-03-16T05:25:30.486Z,935.21
2019-03-16T05:26:30.956Z,935.14
2019-03-16T05:27:31.435Z,935.16
2019-03-16T05:28:32.273Z,935.04
2019-03-16T05:29:33.023Z,935.07
2019-03-16T05:30:34.068Z,935.12
2019-03-16T05:31:34.826Z,935.03
2019-03-16T05:32:35.852Z,935.03
2019-03-16T05:33:36.961Z,935.03
2019-03-16T05:34:37.573Z,935.12
2019-03-16T05:35:38.471Z,935.06
2019-03-16T05:36:39.529Z,935.04
2019-03-16T05:37:40.297Z,935.06
2019-03-16T05:38:40.908Z,935.05
2019-03-16T05:39:41.992Z,935.02
2019-03-16T05:40:42.469Z,934.88
2019-03-16T05:41:42.945Z,934.94
2019-03-16T05:42:43.426Z,934.97
2019-03-16T05:43:44.561Z,934.79
2019-03-16T05:44:45.036Z,934.88
2019-03-16T05:45:45.236Z,934.89
2019-03-16T05:46:45.980Z,934.82
2019-03-16T05:47:46.737Z,934.85
2019-03-16T05:48:47.211Z,934.82
2019-03-16T05:49:47.685Z,934.86
2019-03-16T05:50:48.720Z,934.84
2019-03-16T05:51:49.787Z,934.8
2019-03-16T05:52:50.641Z,934.9
2019-03-16T05:53:51.763Z,934.84
2019-03-16T05:54:52.259Z,934.85
2019-03-16T05:55:53.356Z,934.75
2019-03-16T05:56:53.828Z,934.84
2019-03-16T05:57:54.027Z,934.87
2019-03-16T05:58:54.504Z,934.86
2019-03-16T05:59:55.539Z,934.91
2019-03-16T06:00:56.016Z,934.81
2019-03-16T06:01:56.767Z,934.89
2019-03-16T06:02:57.239Z,934.99
2019-03-16T06:03:57.715Z,934.97
2019-03-16T06:05:10.714Z,934.97
2019-03-16T06:06:08.826Z,934.87
2019-03-16T06:07:09.954Z,934.9
2019-03-16T06:08:10.745Z,934.89
2019-03-16T06:09:11.583Z,934.81
2019-03-16T06:10:12.617Z,934.84
2019-03-16T06:11:12.818Z,935
2019-03-16T06:12:13.598Z,934.93
2019-03-16T06:13:14.641Z,935.02
2019-03-16T06:14:15.400Z,934.89
2019-03-16T06:15:16.245Z,935.04
2019-03-16T06:16:17.020Z,935
2019-03-16T06:17:17.334Z,934.94
2019-03-16T06:18:17.926Z,934.94
2019-03-16T06:19:18.966Z,934.8
2019-03-16T06:20:19.445Z,934.83
2019-03-16T06:21:20.250Z,934.9
2019-03-16T06:22:20.734Z,935.07
2019-03-16T06:23:21.056Z,934.89
2019-03-16T06:24:21.335Z,934.85
2019-03-16T06:25:22.372Z,934.82
2019-03-16T06:26:23.219Z,934.91
2019-03-16T06:27:23.700Z,934.82
2019-03-16T06:28:24.527Z,934.84
2019-03-16T06:29:25.347Z,934.8
2019-03-16T06:30:26.179Z,934.8
2019-03-16T06:31:26.935Z,934.91
2019-03-16T06:32:27.995Z,934.83
2019-03-16T06:33:28.204Z,934.86
2019-03-16T06:34:28.415Z,934.88
2019-03-16T06:35:30.108Z,934.89
2019-03-16T06:36:31.175Z,934.88
2019-03-16T06:37:31.658Z,934.96
2019-03-16T06:38:32.699Z,934.92
2019-03-16T06:39:33.739Z,934.83
2019-03-16T06:40:34.216Z,934.89
2019-03-16T06:41:35.254Z,934.89
2019-03-16T06:42:35.730Z,934.85
2019-03-16T06:43:36.485Z,934.93
2019-03-16T06:44:36.747Z,934.91
2019-03-16T06:45:38.058Z,934.95
2019-03-16T06:46:38.998Z,934.94
2019-03-16T06:47:39.842Z,934.9
2019-03-16T06:48:40.046Z,934.96
2019-03-16T06:49:40.807Z,935.02
2019-03-16T06:50:41.563Z,935
2019-03-16T06:51:42.045Z,935.02
2019-03-16T06:52:43.092Z,935.03
2019-03-16T06:53:43.579Z,935
2019-03-16T06:54:43.931Z,935
2019-03-16T06:55:44.466Z,935.01
2019-03-16T06:56:45.665Z,935.04
2019-03-16T06:57:46.144Z,935
2019-03-16T06:58:46.625Z,934.99
2019-03-16T06:59:47.105Z,934.98
2019-03-16T07:00:47.615Z,934.98
2019-03-16T07:01:48.462Z,935
2019-03-16T07:02:49.506Z,934.93
2019-03-16T07:03:49.988Z,935.06
2019-03-16T07:04:50.515Z,935.01
2019-03-16T07:05:51.314Z,935
2019-03-16T07:06:52.087Z,934.98
2019-03-16T07:07:52.847Z,935.06
2019-03-16T07:08:53.879Z,935.03
2019-03-16T07:09:54.082Z,935.09
2019-03-16T07:10:54.561Z,935.09
2019-03-16T07:11:54.770Z,935.14
2019-03-16T07:12:55.616Z,935.17
2019-03-16T07:13:56.442Z,935.18
2019-03-16T07:14:56.647Z,935.19
2019-03-16T07:15:57.691Z,935.21
2019-03-16T07:17:03.029Z,935.16
2019-03-16T07:18:03.527Z,935.2
2019-03-16T07:19:04.565Z,935.19
2019-03-16T07:20:05.349Z,935.25
2019-03-16T07:21:05.829Z,935.26
2019-03-16T07:22:06.027Z,935.21
2019-03-16T07:23:06.785Z,935.3
2019-03-16T07:24:07.304Z,935.25
2019-03-16T07:25:08.344Z,935.28
2019-03-16T07:26:15.471Z,935.24
2019-03-16T07:26:19.215Z,935.23
2019-03-16T07:27:26.942Z,935.29
2019-03-16T07:27:29.758Z,935.23
2019-03-16T07:28:30.403Z,935.21
2019-03-16T07:29:31.163Z,935.27
2019-03-16T07:30:31.639Z,935.21
2019-03-16T07:31:33.057Z,935.25
2019-03-16T07:32:33.845Z,935.19
2019-03-16T07:33:34.323Z,935.24
2019-03-16T07:34:34.805Z,935.21
2019-03-16T07:35:35.579Z,935.31
2019-03-16T07:36:36.626Z,935.25
2019-03-16T07:37:37.658Z,935.28
2019-03-16T07:38:37.867Z,935.3
2019-03-16T07:39:38.066Z,935.28
2019-03-16T07:40:39.104Z,935.29
2019-03-16T07:41:40.146Z,935.32
2019-03-16T07:42:40.539Z,935.35
2019-03-16T07:43:41.088Z,935.36
2019-03-16T07:44:42.126Z,935.38
2019-03-16T07:45:43.436Z,935.36
2019-03-16T07:46:43.641Z,935.42
2019-03-16T07:47:44.122Z,935.36
2019-03-16T07:48:44.322Z,935.4
2019-03-16T07:49:44.820Z,935.44
2019-03-16T07:50:45.368Z,935.43
2019-03-16T07:51:46.425Z,935.48
2019-03-16T07:52:47.198Z,935.46
2019-03-16T07:53:47.697Z,935.41
2019-03-16T07:54:48.185Z,935.49
2019-03-16T07:55:48.966Z,935.52
2019-03-16T07:56:50.009Z,935.55
2019-03-16T07:57:50.766Z,935.55
2019-03-16T07:58:51.719Z,935.44
2019-03-16T07:59:53.120Z,935.5
2019-03-16T08:00:54.237Z,935.42
2019-03-16T08:01:54.996Z,935.51
2019-03-16T08:02:55.597Z,935.51
2019-03-16T08:03:55.814Z,935.52
2019-03-16T08:04:56.573Z,935.52
2019-03-16T08:05:57.339Z,935.57
2019-03-16T08:06:58.103Z,935.47
2019-03-16T08:07:58.670Z,935.56
2019-03-16T08:08:59.463Z,935.54
2019-03-16T08:10:03.629Z,935.55
2019-03-16T08:11:04.142Z,935.59
2019-03-16T08:12:04.382Z,935.56
2019-03-16T08:13:05.166Z,935.57
2019-03-16T08:14:05.708Z,935.54
2019-03-16T08:15:06.189Z,935.49
2019-03-16T08:16:06.611Z,935.5
2019-03-16T08:17:07.099Z,935.43
2019-03-16T08:18:08.632Z,935.47
2019-03-16T08:19:09.397Z,935.58
2019-03-16T08:20:09.881Z,935.57
2019-03-16T08:21:10.177Z,935.61
2019-03-16T08:22:11.510Z,935.59
2019-03-16T08:23:12.118Z,935.62
2019-03-16T08:24:12.322Z,935.64
2019-03-16T08:25:13.083Z,935.62
2019-03-16T08:26:14.221Z,935.68
2019-03-16T08:27:15.070Z,935.68
2019-03-16T08:28:15.278Z,935.67
2019-03-16T08:29:15.667Z,935.66
2019-03-16T08:30:16.824Z,935.62
2019-03-16T08:31:17.166Z,935.6
2019-03-16T08:32:17.944Z,935.72
2019-03-16T08:33:18.273Z,935.66
2019-03-16T08:34:19.395Z,935.55
2019-03-16T08:35:20.437Z,935.68
2019-03-16T08:36:21.476Z,935.68
2019-03-16T08:37:21.967Z,935.74
2019-03-16T08:38:23.046Z,935.71
2019-03-16T08:39:24.259Z,935.73
2019-03-16T08:40:24.467Z,935.79
2019-03-16T08:41:25.588Z,935.73
2019-03-16T08:42:25.795Z,935.74
2019-03-16T08:43:26.850Z,935.73
2019-03-16T08:44:27.342Z,935.64
2019-03-16T08:45:28.102Z,935.73
2019-03-16T08:46:28.310Z,935.68
2019-03-16T08:47:32.109Z,935.71
2019-03-16T08:48:32.901Z,935.71
2019-03-16T08:49:33.673Z,935.7
2019-03-16T08:50:34.726Z,935.7
2019-03-16T08:51:34.931Z,935.74
2019-03-16T08:52:35.144Z,935.62
2019-03-16T08:53:35.909Z,935.68
2019-03-16T08:54:36.401Z,935.7
2019-03-16T08:55:36.888Z,935.71
2019-03-16T08:56:37.652Z,935.8
2019-03-16T08:57:38.142Z,935.84
2019-03-16T08:58:39.518Z,935.85
2019-03-16T08:59:39.760Z,935.84
2019-03-16T09:00:40.320Z,935.84
2019-03-16T09:01:40.824Z,935.87
2019-03-16T09:02:41.896Z,935.93
2019-03-16T09:03:44.298Z,935.81
2019-03-16T09:04:45.160Z,935.84
2019-03-16T09:05:45.976Z,935.76
2019-03-16T09:06:46.491Z,935.74
2019-03-16T09:07:46.979Z,935.72
2019-03-16T09:08:47.756Z,935.75
2019-03-16T09:09:48.711Z,935.79
2019-03-16T09:10:49.486Z,935.8
2019-03-16T09:11:51.204Z,935.76
2019-03-16T09:12:55.662Z,935.79
2019-03-16T09:13:55.873Z,935.75
2019-03-16T09:14:56.361Z,935.77
2019-03-16T09:15:57.479Z,935.73
2019-03-16T09:16:58.269Z,935.7
2019-03-16T09:17:58.770Z,935.68
2019-03-16T09:18:59.828Z,935.71
2019-03-16T09:20:00.672Z,935.62
2019-03-16T09:21:01.716Z,935.62
2019-03-16T09:22:02.223Z,935.63
2019-03-16T09:23:03.177Z,935.63
2019-03-16T09:24:03.792Z,935.66
2019-03-16T09:25:04.562Z,935.59
2019-03-16T09:26:05.060Z,935.68
2019-03-16T09:27:06.104Z,935.58
2019-03-16T09:28:18.776Z,935.56
2019-03-16T09:29:10.261Z,935.7
2019-03-16T09:29:15.079Z,935.73
2019-03-16T09:30:13.318Z,935.8
2019-03-16T09:31:13.672Z,935.74
2019-03-16T09:32:14.439Z,935.65
2019-03-16T09:33:16.006Z,935.69
2019-03-16T09:34:17.091Z,935.7
2019-03-16T09:35:18.134Z,935.68
2019-03-16T09:36:18.908Z,935.68
2019-03-16T09:37:19.967Z,935.55
2019-03-16T09:38:21.013Z,935.65
2019-03-16T09:39:22.053Z,935.69
2019-03-16T09:40:22.511Z,935.73
2019-03-16T09:41:23.557Z,935.81
2019-03-16T09:42:24.094Z,935.75
2019-03-16T09:43:24.858Z,935.79
2019-03-16T09:44:25.625Z,935.8
2019-03-16T09:45:25.847Z,935.77
2019-03-16T09:46:26.162Z,935.76
2019-03-16T09:47:26.926Z,935.74
2019-03-16T09:48:27.792Z,935.78
2019-03-16T09:49:28.164Z,935.84
2019-03-16T09:50:28.950Z,935.81
2019-03-16T09:51:29.328Z,935.81
2019-03-16T09:52:29.538Z,935.74
2019-03-16T09:53:30.303Z,935.78
2019-03-16T09:54:31.068Z,935.67
2019-03-16T09:55:31.554Z,935.64
2019-03-16T09:56:32.229Z,935.68
2019-03-16T09:57:33.025Z,935.63
2019-03-16T09:58:33.898Z,935.69
2019-03-16T09:59:34.705Z,935.71
2019-03-16T10:00:35.407Z,935.68
2019-03-16T10:01:36.456Z,935.71
2019-03-16T10:02:36.683Z,935.66
2019-03-16T10:03:37.172Z,935.68
2019-03-16T10:04:38.233Z,935.69
2019-03-16T10:05:39.303Z,935.72
2019-03-16T10:06:40.122Z,935.67
2019-03-16T10:07:42.279Z,935.7
2019-03-16T10:07:51.660Z,935.76
2019-03-16T10:08:01.511Z,935.66
2019-03-16T10:09:03.963Z,935.68
2019-03-16T10:09:13.017Z,935.73
2019-03-16T10:10:13.808Z,935.73
2019-03-16T10:11:14.591Z,935.73
2019-03-16T10:12:15.633Z,935.66
2019-03-16T10:13:15.884Z,935.69
2019-03-16T10:14:17.206Z,935.68
2019-03-16T10:15:17.497Z,935.75
2019-03-16T10:16:17.781Z,935.73
2019-03-16T10:17:18.841Z,935.76
2019-03-16T10:18:19.330Z,935.8
2019-03-16T10:19:20.096Z,935.74
2019-03-16T10:20:20.750Z,935.75
2019-03-16T10:21:21.074Z,935.57
2019-03-16T10:22:21.637Z,935.65
2019-03-16T10:23:22.401Z,935.65
2019-03-16T10:24:23.173Z,935.66
2019-03-16T10:25:23.499Z,935.62
2019-03-16T10:26:23.995Z,935.56
2019-03-16T10:27:24.759Z,935.61
2019-03-16T10:28:25.252Z,935.53
2019-03-16T10:29:25.834Z,935.52
2019-03-16T10:30:26.076Z,935.54
2019-03-16T10:31:26.567Z,935.63
2019-03-16T10:32:27.612Z,935.59
2019-03-16T10:33:28.109Z,935.58
2019-03-16T10:34:29.156Z,935.56
2019-03-16T10:35:29.647Z,935.62
2019-03-16T10:36:30.487Z,935.65
2019-03-16T10:37:30.705Z,935.67
2019-03-16T10:38:31.474Z,935.65
2019-03-16T10:39:31.979Z,935.7
2019-03-16T10:40:33.020Z,935.67
2019-03-16T10:41:33.790Z,935.66
2019-03-16T10:42:34.585Z,935.66
2019-03-16T10:43:35.073Z,935.58
2019-03-16T10:44:35.870Z,935.64
2019-03-16T10:45:36.081Z,935.6
2019-03-16T10:46:36.448Z,935.58
2019-03-16T10:47:37.218Z,935.57
2019-03-16T10:48:38.261Z,935.62
2019-03-16T10:49:38.473Z,935.55
2019-03-16T10:50:38.723Z,935.55
2019-03-16T10:51:39.242Z,935.51
2019-03-16T10:52:39.827Z,935.58
2019-03-16T10:53:40.677Z,935.46
2019-03-16T10:54:40.894Z,935.53
2019-03-16T10:55:41.385Z,935.5
2019-03-16T10:56:42.432Z,935.48
2019-03-16T10:57:42.921Z,935.44
2019-03-16T10:58:56.723Z,935.37
2019-03-16T10:59:53.778Z,935.37
2019-03-16T11:00:54.563Z,935.34
2019-03-16T11:01:54.778Z,935.36
2019-03-16T11:02:55.266Z,935.32
2019-03-16T11:03:55.481Z,935.34
2019-03-16T11:04:56.254Z,935.33
2019-03-16T11:05:56.749Z,935.26
2019-03-16T11:06:57.522Z,935.21
2019-03-16T11:07:58.014Z,935.21
2019-03-16T11:08:58.511Z,935.2
2019-03-16T11:09:58.889Z,935.12
2019-03-16T11:10:59.955Z,935.11
2019-03-16T11:12:00.448Z,935.06
2019-03-16T11:13:00.868Z,935.03
2019-03-16T11:14:01.191Z,934.99
2019-03-16T11:15:01.961Z,935.01
2019-03-16T11:16:02.459Z,934.91
2019-03-16T11:17:03.240Z,934.96
2019-03-16T11:18:04.009Z,934.89
2019-03-16T11:19:05.068Z,934.91
2019-03-16T11:20:05.910Z,934.96
2019-03-16T11:21:07.033Z,934.93
2019-03-16T11:22:07.801Z,934.91
2019-03-16T11:23:08.863Z,934.91
2019-03-16T11:24:10.203Z,934.92
2019-03-16T11:25:11.259Z,934.9
2019-03-16T11:26:11.474Z,934.88
2019-03-16T11:27:12.318Z,934.86
2019-03-16T11:28:13.260Z,934.87
2019-03-16T11:29:14.048Z,934.84
2019-03-16T11:30:14.612Z,934.8
2019-03-16T11:31:15.178Z,934.76
2019-03-16T11:32:15.694Z,934.69
2019-03-16T11:33:15.904Z,934.75
2019-03-16T11:34:16.393Z,934.74
2019-03-16T11:35:16.886Z,934.72
2019-03-16T11:36:17.721Z,934.71
2019-03-16T11:37:18.210Z,934.69
2019-03-16T11:38:18.978Z,934.68
2019-03-16T11:39:19.745Z,934.64
2019-03-16T11:40:20.803Z,934.6
2019-03-16T11:41:21.022Z,934.57
2019-03-16T11:42:21.513Z,934.61
2019-03-16T11:43:22.285Z,934.58
2019-03-16T11:44:23.058Z,934.56
2019-03-16T11:45:23.823Z,934.57
2019-03-16T11:46:24.592Z,934.57
2019-03-16T11:47:25.357Z,934.55
2019-03-16T11:48:25.856Z,934.54
2019-03-16T11:49:26.058Z,934.57
2019-03-16T11:50:26.519Z,934.55
2019-03-16T11:51:26.733Z,934.57
2019-03-16T11:52:27.242Z,934.55
2019-03-16T11:53:28.003Z,934.52
2019-03-16T11:54:28.361Z,934.51
2019-03-16T11:55:28.872Z,934.47
2019-03-16T11:56:29.112Z,934.47
2019-03-16T11:57:29.964Z,934.48
2019-03-16T11:58:30.455Z,934.47
2019-03-16T11:59:30.679Z,934.47
2019-03-16T12:00:31.189Z,934.48
2019-03-16T12:01:31.794Z,934.44
2019-03-16T12:02:32.584Z,934.44
2019-03-16T12:03:33.089Z,934.36
2019-03-16T12:04:33.868Z,934.42
2019-03-16T12:05:34.638Z,934.4
2019-03-16T12:06:35.403Z,934.37
2019-03-16T12:07:35.972Z,934.34
2019-03-16T12:08:40.007Z,934.32
2019-03-16T12:09:40.776Z,934.3
2019-03-16T12:10:40.991Z,934.33
2019-03-16T12:11:41.557Z,934.34
2019-03-16T12:12:41.780Z,934.29
2019-03-16T12:13:44.299Z,934.3
2019-03-16T12:14:46.715Z,934.23
2019-03-16T12:15:46.862Z,934.23
2019-03-16T12:16:47.686Z,934.23
2019-03-16T12:17:48.478Z,934.23
2019-03-16T12:18:49.556Z,934.26
2019-03-16T12:19:50.314Z,934.22
2019-03-16T12:20:51.154Z,934.15
2019-03-16T12:21:51.921Z,934.09
2019-03-16T12:22:52.694Z,934.03
2019-03-16T12:23:53.458Z,934.07
2019-03-16T12:24:54.499Z,934.1
2019-03-16T12:25:54.984Z,934.05
2019-03-16T12:26:55.745Z,933.98
2019-03-16T12:27:56.231Z,933.92
2019-03-16T12:28:56.550Z,933.95
2019-03-16T12:29:57.615Z,933.9
2019-03-16T12:30:57.908Z,933.84
2019-03-16T12:31:58.707Z,933.88